PWSweather.com
Personal Weather Stations
Station Observations
WATERF01
WaterfordIE

WaterfordIE

Lat: 52.2412507, Lon: -7.1414691

Elevation: 65

Station Type: Davis Vantage Vue

www.waterfordweather.com

High Low Average
Temperature 49.9°F9.9°C 41.1°F5.1°C 47.0°F8.3°C
Dew Point 43.1°F6.2°C 38.2°F3.4°C 40.9°F4.9°C
Winds 18.4 mph 29.6 kmh Calm Calm 10.0 mph W16.1 kmh W
Wind Gusts 34.5 mph55.5 kmh -- 18.0 mph29.0 kmh
Humidity 95% 66% 79%
Pressure 29.58 in1001.7 mb 29.24 in990.2 mb -
Precipitation 0.09 in2.3 mm - -
Hour Temp Dew Point Humidity Winds Wind Gusts Pressure Precip Precip Rate Daily Precip Total
12:00 AM 45.6°F7.6°C 41.0°F5.0°C 84% 11.5 mph W18.5 kmh W 16.1 mph25.9 kmh 29.24 in990.2 mb - 0.00 in0.0 mm 0.00 in0.0 mm
12:10 AM 45.3°F7.4°C 40.7°F4.8°C 84% 8.1 mph WNW13.0 kmh WNW 11.5 mph18.5 kmh 29.25 in990.5 mb - 0.00 in0.0 mm 0.00 in0.0 mm
12:20 AM 44.2°F6.8°C 40.3°F4.6°C 86% 12.7 mph W20.4 kmh W 21.9 mph35.2 kmh 29.25 in990.5 mb - 0.02 in0.5 mm 0.02 in0.5 mm
12:30 AM 42.3°F5.7°C 39.6°F4.2°C 90% 10.4 mph W16.7 kmh W 18.4 mph29.6 kmh 29.25 in990.5 mb - 0.01 in0.3 mm 0.02 in0.5 mm
12:40 AM 42.3°F5.7°C 39.5°F4.2°C 90% 10.4 mph W16.7 kmh W 16.1 mph25.9 kmh 29.25 in990.5 mb - 0.00 in0.0 mm 0.02 in0.5 mm
12:50 AM 43.3°F6.3°C 40.0°F4.4°C 88% 13.8 mph WNW22.2 kmh WNW 25.3 mph40.7 kmh 29.27 in991.2 mb - 0.00 in0.0 mm 0.02 in0.5 mm
01:00 AM 42.5°F5.8°C 40.1°F4.5°C 91% 11.5 mph WSW18.5 kmh WSW 20.7 mph33.3 kmh 29.28 in991.5 mb - 0.03 in0.8 mm 0.05 in1.3 mm
01:10 AM 41.3°F5.2°C 40.0°F4.4°C 95% 11.5 mph W18.5 kmh W 18.4 mph29.6 kmh 29.27 in991.2 mb - 0.00 in0.0 mm 0.05 in1.3 mm
01:20 AM 41.1°F5.1°C 39.8°F4.3°C 95% 8.1 mph W13.0 kmh W 8.1 mph13.0 kmh 29.27 in991.2 mb - 0.00 in0.0 mm 0.05 in1.3 mm
01:30 AM 41.3°F5.2°C 40.0°F4.4°C 95% 13.8 mph WNW22.2 kmh WNW 21.9 mph35.2 kmh 29.27 in991.2 mb - 0.00 in0.0 mm 0.05 in1.3 mm
01:40 AM 42.8°F6.0°C 41.4°F5.2°C 95% 13.8 mph WNW22.2 kmh WNW 23.0 mph37.0 kmh 29.27 in991.2 mb - 0.00 in0.0 mm 0.05 in1.3 mm
01:50 AM 44.0°F6.7°C 40.1°F4.5°C 86% 10.4 mph W16.7 kmh W 18.4 mph29.6 kmh 29.26 in990.9 mb - 0.00 in0.0 mm 0.05 in1.3 mm
02:00 AM 43.8°F6.6°C 39.9°F4.4°C 86% 9.2 mph WNW14.8 kmh WNW 16.1 mph25.9 kmh 29.27 in991.2 mb - 0.00 in0.0 mm 0.05 in1.3 mm
02:10 AM 44.4°F6.9°C 39.6°F4.2°C 83% 15.0 mph W24.1 kmh W 21.9 mph35.2 kmh 29.27 in991.2 mb - 0.00 in0.0 mm 0.05 in1.3 mm
02:20 AM 44.9°F7.2°C 39.8°F4.3°C 82% 11.5 mph W18.5 kmh W 21.9 mph35.2 kmh 29.28 in991.5 mb - 0.00 in0.0 mm 0.05 in1.3 mm
02:30 AM 44.7°F7.1°C 39.5°F4.2°C 82% 13.8 mph W22.2 kmh W 21.9 mph35.2 kmh 29.28 in991.5 mb - 0.00 in0.0 mm 0.05 in1.3 mm
02:40 AM 44.8°F7.1°C 39.6°F4.2°C 82% 10.4 mph W16.7 kmh W 16.1 mph25.9 kmh 29.29 in991.9 mb - 0.00 in0.0 mm 0.05 in1.3 mm
02:50 AM 45.1°F7.3°C 39.6°F4.2°C 81% 11.5 mph W18.5 kmh W 19.6 mph31.5 kmh 29.30 in992.2 mb - 0.00 in0.0 mm 0.05 in1.3 mm
03:00 AM 45.3°F7.4°C 39.8°F4.3°C 81% 9.2 mph W14.8 kmh W 19.6 mph31.5 kmh 29.31 in992.6 mb - 0.00 in0.0 mm 0.05 in1.3 mm
03:10 AM 45.3°F7.4°C 39.5°F4.2°C 80% 13.8 mph WNW22.2 kmh WNW 21.9 mph35.2 kmh 29.31 in992.6 mb - 0.00 in0.0 mm 0.05 in1.3 mm
03:20 AM 45.6°F7.6°C 39.5°F4.2°C 79% 13.8 mph WNW22.2 kmh WNW 26.5 mph42.6 kmh 29.31 in992.6 mb - 0.00 in0.0 mm 0.05 in1.3 mm
03:30 AM 46.0°F7.8°C 39.9°F4.4°C 79% 11.5 mph W18.5 kmh W 19.6 mph31.5 kmh 29.32 in992.9 mb - 0.00 in0.0 mm 0.05 in1.3 mm
03:40 AM 45.9°F7.7°C 39.8°F4.3°C 79% 10.4 mph W16.7 kmh W 20.7 mph33.3 kmh 29.32 in992.9 mb - 0.00 in0.0 mm 0.05 in1.3 mm
03:50 AM 46.6°F8.1°C 40.4°F4.7°C 79% 10.4 mph W16.7 kmh W 19.6 mph31.5 kmh 29.34 in993.6 mb - 0.00 in0.0 mm 0.05 in1.3 mm
04:00 AM 44.9°F7.2°C 41.2°F5.1°C 87% 12.7 mph WNW20.4 kmh WNW 32.2 mph51.8 kmh 29.37 in994.6 mb - 0.02 in0.5 mm 0.07 in1.8 mm
04:10 AM 42.5°F5.8°C 40.1°F4.5°C 91% 11.5 mph WNW18.5 kmh WNW 18.4 mph29.6 kmh 29.36 in994.2 mb - 0.01 in0.3 mm 0.08 in2.0 mm
04:20 AM 42.1°F5.6°C 39.9°F4.4°C 92% 10.4 mph W16.7 kmh W 21.9 mph35.2 kmh 29.36 in994.2 mb - 0.00 in0.0 mm 0.08 in2.0 mm
04:30 AM 44.0°F6.7°C 39.5°F4.2°C 84% 15.0 mph W24.1 kmh W 34.5 mph55.5 kmh 29.36 in994.2 mb - 0.00 in0.0 mm 0.08 in2.0 mm
04:40 AM 44.8°F7.1°C 39.7°F4.3°C 82% 12.7 mph WNW20.4 kmh WNW 20.7 mph33.3 kmh 29.36 in994.2 mb - 0.00 in0.0 mm 0.08 in2.0 mm
04:50 AM 45.4°F7.4°C 39.9°F4.4°C 81% 11.5 mph WNW18.5 kmh WNW 19.6 mph31.5 kmh 29.36 in994.2 mb - 0.00 in0.0 mm 0.08 in2.0 mm
05:00 AM 46.1°F7.8°C 40.3°F4.6°C 80% 9.2 mph W14.8 kmh W 13.8 mph22.2 kmh 29.37 in994.6 mb - 0.00 in0.0 mm 0.08 in2.0 mm
05:10 AM 46.3°F7.9°C 40.4°F4.7°C 80% 13.8 mph W22.2 kmh W 25.3 mph40.7 kmh 29.38 in994.9 mb - 0.00 in0.0 mm 0.08 in2.0 mm
05:20 AM 46.5°F8.1°C 40.3°F4.6°C 79% 11.5 mph W18.5 kmh W 23.0 mph37.0 kmh 29.38 in994.9 mb - 0.00 in0.0 mm 0.08 in2.0 mm
05:30 AM 46.5°F8.1°C 40.9°F4.9°C 81% 9.2 mph WNW14.8 kmh WNW 13.8 mph22.2 kmh 29.38 in994.9 mb - 0.00 in0.0 mm 0.08 in2.0 mm
05:40 AM 46.8°F8.2°C 40.9°F4.9°C 80% 13.8 mph W22.2 kmh W 21.9 mph35.2 kmh 29.38 in994.9 mb - 0.00 in0.0 mm 0.08 in2.0 mm
05:50 AM 47.1°F8.4°C 40.9°F4.9°C 79% 12.7 mph W20.4 kmh W 20.7 mph33.3 kmh 29.38 in994.9 mb - 0.00 in0.0 mm 0.08 in2.0 mm
06:00 AM 47.4°F8.6°C 41.2°F5.1°C 79% 15.0 mph W24.1 kmh W 27.6 mph44.4 kmh 29.38 in994.9 mb - 0.00 in0.0 mm 0.08 in2.0 mm
06:10 AM 47.0°F8.3°C 41.2°F5.1°C 80% 12.7 mph W20.4 kmh W 32.2 mph51.8 kmh 29.39 in995.3 mb - 0.00 in0.0 mm 0.08 in2.0 mm
06:20 AM 47.2°F8.4°C 41.3°F5.2°C 80% 10.4 mph W16.7 kmh W 23.0 mph37.0 kmh 29.40 in995.6 mb - 0.00 in0.0 mm 0.08 in2.0 mm
06:30 AM 47.5°F8.6°C 41.3°F5.2°C 79% 11.5 mph WNW18.5 kmh WNW 21.9 mph35.2 kmh 29.40 in995.6 mb - 0.00 in0.0 mm 0.08 in2.0 mm
06:40 AM 47.7°F8.7°C 41.2°F5.1°C 78% 13.8 mph WNW22.2 kmh WNW 21.9 mph35.2 kmh 29.41 in995.9 mb - 0.00 in0.0 mm 0.08 in2.0 mm
06:50 AM 47.8°F8.8°C 41.3°F5.2°C 78% 12.7 mph WNW20.4 kmh WNW 23.0 mph37.0 kmh 29.41 in995.9 mb - 0.00 in0.0 mm 0.08 in2.0 mm
07:00 AM 47.8°F8.8°C 40.9°F4.9°C 77% 11.5 mph WNW18.5 kmh WNW 23.0 mph37.0 kmh 29.42 in996.3 mb - 0.00 in0.0 mm 0.08 in2.0 mm
07:10 AM 48.1°F8.9°C 41.6°F5.3°C 78% 18.4 mph W29.6 kmh W 29.9 mph48.1 kmh 29.44 in997.0 mb - 0.00 in0.0 mm 0.08 in2.0 mm
07:20 AM 46.7°F8.2°C 41.2°F5.1°C 81% 11.5 mph WNW18.5 kmh WNW 18.4 mph29.6 kmh 29.43 in996.6 mb - 0.00 in0.0 mm 0.08 in2.0 mm
07:30 AM 46.6°F8.1°C 41.1°F5.1°C 81% 11.5 mph WNW18.5 kmh WNW 15.0 mph24.1 kmh 29.44 in997.0 mb - 0.00 in0.0 mm 0.08 in2.0 mm
07:40 AM 46.4°F8.0°C 40.9°F4.9°C 81% 9.2 mph W14.8 kmh W 19.6 mph31.5 kmh 29.45 in997.3 mb - 0.00 in0.0 mm 0.08 in2.0 mm
07:50 AM 47.3°F8.5°C 41.1°F5.1°C 79% 12.7 mph W20.4 kmh W 21.9 mph35.2 kmh 29.45 in997.3 mb - 0.00 in0.0 mm 0.08 in2.0 mm
08:00 AM 47.1°F8.4°C 40.9°F4.9°C 79% 9.2 mph WNW14.8 kmh WNW 20.7 mph33.3 kmh 29.44 in997.0 mb - 0.00 in0.0 mm 0.08 in2.0 mm
08:10 AM 47.3°F8.5°C 40.8°F4.9°C 78% 12.7 mph WNW20.4 kmh WNW 21.9 mph35.2 kmh 29.45 in997.3 mb - 0.00 in0.0 mm 0.08 in2.0 mm
08:20 AM 47.6°F8.7°C 40.4°F4.7°C 76% 15.0 mph W24.1 kmh W 26.5 mph42.6 kmh 29.46 in997.6 mb - 0.00 in0.0 mm 0.08 in2.0 mm
08:30 AM 47.7°F8.7°C 40.2°F4.6°C 75% 15.0 mph WNW24.1 kmh WNW 27.6 mph44.4 kmh 29.47 in998.0 mb - 0.00 in0.0 mm 0.08 in2.0 mm
08:40 AM 47.8°F8.8°C 40.6°F4.8°C 76% 11.5 mph WNW18.5 kmh WNW 18.4 mph29.6 kmh 29.47 in998.0 mb - 0.00 in0.0 mm 0.08 in2.0 mm
08:50 AM 48.0°F8.9°C 40.5°F4.7°C 75% 11.5 mph WNW18.5 kmh WNW 23.0 mph37.0 kmh 29.47 in998.0 mb - 0.00 in0.0 mm 0.08 in2.0 mm
09:00 AM 48.1°F8.9°C 40.2°F4.6°C 74% 15.0 mph WNW24.1 kmh WNW 27.6 mph44.4 kmh 29.48 in998.3 mb - 0.00 in0.0 mm 0.08 in2.0 mm
09:10 AM 48.0°F8.9°C 41.2°F5.1°C 77% 13.8 mph WNW22.2 kmh WNW 21.9 mph35.2 kmh 29.49 in998.6 mb - 0.00 in0.0 mm 0.08 in2.0 mm
09:20 AM 47.1°F8.4°C 40.9°F4.9°C 79% 11.5 mph W18.5 kmh W 23.0 mph37.0 kmh 29.50 in999.0 mb - 0.00 in0.0 mm 0.08 in2.0 mm
09:30 AM 47.6°F8.7°C 40.4°F4.7°C 76% 11.5 mph WNW18.5 kmh WNW 16.1 mph25.9 kmh 29.50 in999.0 mb - 0.00 in0.0 mm 0.08 in2.0 mm
09:40 AM 48.1°F8.9°C 40.6°F4.8°C 75% 15.0 mph W24.1 kmh W 20.7 mph33.3 kmh 29.50 in999.0 mb - 0.00 in0.0 mm 0.08 in2.0 mm
09:50 AM 48.4°F9.1°C 40.5°F4.7°C 74% 13.8 mph WNW22.2 kmh WNW 21.9 mph35.2 kmh 29.51 in999.3 mb - 0.00 in0.0 mm 0.08 in2.0 mm
10:00 AM 48.5°F9.2°C 40.6°F4.8°C 74% 12.7 mph WNW20.4 kmh WNW 21.9 mph35.2 kmh 29.52 in999.7 mb - 0.00 in0.0 mm 0.08 in2.0 mm
10:10 AM 48.7°F9.3°C 40.1°F4.5°C 72% 15.0 mph WNW24.1 kmh WNW 23.0 mph37.0 kmh 29.52 in999.7 mb - 0.00 in0.0 mm 0.08 in2.0 mm
10:20 AM 48.8°F9.3°C 40.5°F4.7°C 73% 11.5 mph W18.5 kmh W 18.4 mph29.6 kmh 29.52 in999.7 mb - 0.00 in0.0 mm 0.08 in2.0 mm
10:30 AM 48.9°F9.4°C 40.3°F4.6°C 72% 12.7 mph WNW20.4 kmh WNW 16.1 mph25.9 kmh 29.53 in1000.0 mb - 0.00 in0.0 mm 0.08 in2.0 mm
10:40 AM 49.3°F9.6°C 39.6°F4.2°C 69% 12.7 mph WNW20.4 kmh WNW 18.4 mph29.6 kmh 29.53 in1000.0 mb - 0.00 in0.0 mm 0.08 in2.0 mm
10:50 AM 49.6°F9.8°C 39.5°F4.2°C 68% 13.8 mph W22.2 kmh W 27.6 mph44.4 kmh 29.53 in1000.0 mb - 0.00 in0.0 mm 0.08 in2.0 mm
11:00 AM 49.8°F9.9°C 38.9°F3.8°C 66% 16.1 mph WNW25.9 kmh WNW 27.6 mph44.4 kmh 29.54 in1000.3 mb - 0.00 in0.0 mm 0.08 in2.0 mm
11:10 AM 49.5°F9.7°C 40.1°F4.5°C 70% 13.8 mph WNW22.2 kmh WNW 24.2 mph38.9 kmh 29.56 in1001.0 mb - 0.00 in0.0 mm 0.08 in2.0 mm
11:20 AM 48.9°F9.4°C 41.3°F5.2°C 75% 11.5 mph W18.5 kmh W 24.2 mph38.9 kmh 29.56 in1001.0 mb - 0.00 in0.0 mm 0.08 in2.0 mm
11:30 AM 48.6°F9.2°C 41.4°F5.2°C 76% 9.2 mph W14.8 kmh W 18.4 mph29.6 kmh 29.57 in1001.4 mb - 0.00 in0.0 mm 0.08 in2.0 mm
11:40 AM 48.4°F9.1°C 41.9°F5.5°C 78% 6.9 mph W11.1 kmh W 12.7 mph20.4 kmh 29.57 in1001.4 mb - 0.00 in0.0 mm 0.08 in2.0 mm
11:50 AM 48.5°F9.2°C 42.3°F5.7°C 79% 10.4 mph W16.7 kmh W 13.8 mph22.2 kmh 29.57 in1001.4 mb - 0.00 in0.0 mm 0.08 in2.0 mm
12:00 PM 48.3°F9.1°C 42.8°F6.0°C 81% 9.2 mph WNW14.8 kmh WNW 16.1 mph25.9 kmh 29.57 in1001.4 mb - 0.00 in0.0 mm 0.08 in2.0 mm
12:10 PM 48.5°F9.2°C 42.9°F6.1°C 81% 10.4 mph W16.7 kmh W 19.6 mph31.5 kmh 29.57 in1001.4 mb - 0.00 in0.0 mm 0.08 in2.0 mm
12:20 PM 48.5°F9.2°C 42.6°F5.9°C 80% 8.1 mph W13.0 kmh W 16.1 mph25.9 kmh 29.57 in1001.4 mb - 0.00 in0.0 mm 0.08 in2.0 mm
12:30 PM 49.1°F9.5°C 42.5°F5.8°C 78% 9.2 mph WNW14.8 kmh WNW 16.1 mph25.9 kmh 29.56 in1001.0 mb - 0.00 in0.0 mm 0.08 in2.0 mm
12:40 PM 49.5°F9.7°C 42.2°F5.7°C 76% 11.5 mph W18.5 kmh W 25.3 mph40.7 kmh 29.56 in1001.0 mb - 0.00 in0.0 mm 0.08 in2.0 mm
12:50 PM 49.4°F9.7°C 41.8°F5.4°C 75% 12.7 mph W20.4 kmh W 18.4 mph29.6 kmh 29.56 in1001.0 mb - 0.00 in0.0 mm 0.08 in2.0 mm
01:00 PM 49.5°F9.7°C 41.9°F5.5°C 75% 13.8 mph WNW22.2 kmh WNW 19.6 mph31.5 kmh 29.57 in1001.4 mb - 0.00 in0.0 mm 0.08 in2.0 mm
01:10 PM 49.7°F9.8°C 41.7°F5.4°C 74% 10.4 mph WNW16.7 kmh WNW 19.6 mph31.5 kmh 29.57 in1001.4 mb - 0.00 in0.0 mm 0.08 in2.0 mm
01:20 PM 49.9°F9.9°C 41.9°F5.5°C 74% 9.2 mph W14.8 kmh W 19.6 mph31.5 kmh 29.57 in1001.4 mb - 0.00 in0.0 mm 0.08 in2.0 mm
01:30 PM 49.6°F9.8°C 42.3°F5.7°C 76% 13.8 mph W22.2 kmh W 26.5 mph42.6 kmh 29.57 in1001.4 mb - 0.00 in0.0 mm 0.08 in2.0 mm
01:40 PM 49.5°F9.7°C 42.2°F5.7°C 76% 10.4 mph W16.7 kmh W 16.1 mph25.9 kmh 29.56 in1001.0 mb - 0.00 in0.0 mm 0.08 in2.0 mm
01:50 PM 49.4°F9.7°C 41.8°F5.4°C 75% 6.9 mph W11.1 kmh W 11.5 mph18.5 kmh 29.57 in1001.4 mb - 0.00 in0.0 mm 0.08 in2.0 mm
02:00 PM 49.3°F9.6°C 41.4°F5.2°C 74% 8.1 mph W13.0 kmh W 12.7 mph20.4 kmh 29.56 in1001.0 mb - 0.00 in0.0 mm 0.08 in2.0 mm
02:10 PM 49.1°F9.5°C 41.2°F5.1°C 74% 10.4 mph W16.7 kmh W 16.1 mph25.9 kmh 29.56 in1001.0 mb - 0.00 in0.0 mm 0.08 in2.0 mm
02:20 PM 49.2°F9.6°C 41.3°F5.2°C 74% 10.4 mph WNW16.7 kmh WNW 21.9 mph35.2 kmh 29.57 in1001.4 mb - 0.00 in0.0 mm 0.08 in2.0 mm
02:30 PM 49.3°F9.6°C 41.4°F5.2°C 74% 8.1 mph W13.0 kmh W 18.4 mph29.6 kmh 29.57 in1001.4 mb - 0.00 in0.0 mm 0.08 in2.0 mm
02:40 PM 49.3°F9.6°C 41.7°F5.4°C 75% 8.1 mph W13.0 kmh W 16.1 mph25.9 kmh 29.56 in1001.0 mb - 0.00 in0.0 mm 0.08 in2.0 mm
02:50 PM 49.3°F9.6°C 41.7°F5.4°C 75% 6.9 mph W11.1 kmh W 19.6 mph31.5 kmh 29.56 in1001.0 mb - 0.00 in0.0 mm 0.08 in2.0 mm
03:00 PM 49.2°F9.6°C 41.9°F5.5°C 76% 3.5 mph WNW5.6 kmh WNW 11.5 mph18.5 kmh 29.57 in1001.4 mb - 0.00 in0.0 mm 0.08 in2.0 mm
03:10 PM 49.1°F9.5°C 41.9°F5.5°C 76% 5.8 mph W9.3 kmh W 13.8 mph22.2 kmh 29.58 in1001.7 mb - 0.00 in0.0 mm 0.08 in2.0 mm
03:20 PM 49.3°F9.6°C 41.7°F5.4°C 75% 5.8 mph WNW9.3 kmh WNW 11.5 mph18.5 kmh 29.58 in1001.7 mb - 0.00 in0.0 mm 0.08 in2.0 mm
03:30 PM 49.2°F9.6°C 41.9°F5.5°C 76% 8.1 mph WNW13.0 kmh WNW 11.5 mph18.5 kmh 29.58 in1001.7 mb - 0.00 in0.0 mm 0.08 in2.0 mm
03:40 PM 49.1°F9.5°C 41.9°F5.5°C 76% 5.8 mph WNW9.3 kmh WNW 8.1 mph13.0 kmh 29.57 in1001.4 mb - 0.00 in0.0 mm 0.08 in2.0 mm
03:50 PM 49.1°F9.5°C 42.2°F5.7°C 77% 6.9 mph WNW11.1 kmh WNW 11.5 mph18.5 kmh 29.57 in1001.4 mb - 0.00 in0.0 mm 0.08 in2.0 mm
04:00 PM 49.0°F9.4°C 42.4°F5.8°C 78% 6.9 mph W11.1 kmh W 11.5 mph18.5 kmh 29.57 in1001.4 mb - 0.00 in0.0 mm 0.08 in2.0 mm
04:10 PM 48.7°F9.3°C 42.8°F6.0°C 80% 4.6 mph WNW7.4 kmh WNW 12.7 mph20.4 kmh 29.57 in1001.4 mb - 0.00 in0.0 mm 0.08 in2.0 mm
04:20 PM 48.9°F9.4°C 42.3°F5.7°C 78% 5.8 mph W9.3 kmh W 8.1 mph13.0 kmh 29.57 in1001.4 mb - 0.00 in0.0 mm 0.08 in2.0 mm
04:30 PM 48.9°F9.4°C 42.4°F5.8°C 78% 6.9 mph W11.1 kmh W 13.8 mph22.2 kmh 29.57 in1001.4 mb - 0.00 in0.0 mm 0.08 in2.0 mm
04:40 PM 48.9°F9.4°C 42.3°F5.7°C 78% 6.9 mph W11.1 kmh W 11.5 mph18.5 kmh 29.57 in1001.4 mb - 0.00 in0.0 mm 0.08 in2.0 mm
04:50 PM 48.7°F9.3°C 42.1°F5.6°C 78% 6.9 mph W11.1 kmh W 12.7 mph20.4 kmh 29.57 in1001.4 mb - 0.00 in0.0 mm 0.08 in2.0 mm
05:00 PM 48.5°F9.2°C 42.3°F5.7°C 79% 8.1 mph WNW13.0 kmh WNW 13.8 mph22.2 kmh 29.56 in1001.0 mb - 0.00 in0.0 mm 0.08 in2.0 mm
05:10 PM 48.5°F9.2°C 42.6°F5.9°C 80% 8.1 mph W13.0 kmh W 11.5 mph18.5 kmh 29.56 in1001.0 mb - 0.00 in0.0 mm 0.08 in2.0 mm
05:20 PM 48.4°F9.1°C 42.8°F6.0°C 81% 10.4 mph W16.7 kmh W 15.0 mph24.1 kmh 29.55 in1000.7 mb - 0.00 in0.0 mm 0.08 in2.0 mm
05:30 PM 48.3°F9.1°C 43.1°F6.2°C 82% 9.2 mph W14.8 kmh W 13.8 mph22.2 kmh 29.54 in1000.3 mb - 0.00 in0.0 mm 0.08 in2.0 mm
05:40 PM 47.9°F8.8°C 43.0°F6.1°C 83% 4.6 mph W7.4 kmh W 9.2 mph14.8 kmh 29.55 in1000.7 mb - 0.00 in0.0 mm 0.08 in2.0 mm
05:50 PM 47.7°F8.7°C 42.8°F6.0°C 83% 5.8 mph W9.3 kmh W 8.1 mph13.0 kmh 29.55 in1000.7 mb - 0.00 in0.0 mm 0.08 in2.0 mm
06:00 PM 47.9°F8.8°C 42.7°F5.9°C 82% 4.6 mph W7.4 kmh W 8.1 mph13.0 kmh 29.55 in1000.7 mb - 0.00 in0.0 mm 0.08 in2.0 mm
06:10 PM 47.6°F8.7°C 42.4°F5.8°C 82% 1.2 mph WSW1.9 kmh WSW 8.1 mph13.0 kmh 29.55 in1000.7 mb - 0.00 in0.0 mm 0.08 in2.0 mm
06:20 PM 47.5°F8.6°C 40.3°F4.6°C 76% 3.5 mph W5.6 kmh W 9.2 mph14.8 kmh 29.55 in1000.7 mb - 0.00 in0.0 mm 0.08 in2.0 mm
06:30 PM 47.6°F8.7°C 40.4°F4.7°C 76% 2.3 mph W3.7 kmh W 5.8 mph9.3 kmh 29.55 in1000.7 mb - 0.00 in0.0 mm 0.08 in2.0 mm
06:40 PM 47.6°F8.7°C 40.7°F4.8°C 77% 4.6 mph WSW7.4 kmh WSW 8.1 mph13.0 kmh 29.55 in1000.7 mb - 0.00 in0.0 mm 0.08 in2.0 mm
06:50 PM 47.3°F8.5°C 40.5°F4.7°C 77% 5.8 mph W9.3 kmh W 11.5 mph18.5 kmh 29.55 in1000.7 mb - 0.00 in0.0 mm 0.08 in2.0 mm
07:00 PM 47.1°F8.4°C 39.9°F4.4°C 76% 5.8 mph W9.3 kmh W 12.7 mph20.4 kmh 29.55 in1000.7 mb - 0.00 in0.0 mm 0.08 in2.0 mm
11:00 PM 44.0°F6.7°C 38.2°F3.4°C 80% 5.8 mph WSW9.3 kmh WSW 10.4 mph16.7 kmh 29.48 in998.3 mb - 0.00 in0.0 mm 0.08 in2.0 mm
11:10 PM 44.0°F6.7°C 38.5°F3.6°C 81% 4.6 mph W7.4 kmh W 8.1 mph13.0 kmh 29.48 in998.3 mb - 0.00 in0.0 mm 0.08 in2.0 mm
11:20 PM 44.1°F6.7°C 38.6°F3.7°C 81% 2.3 mph WSW3.7 kmh WSW 2.3 mph3.7 kmh 29.48 in998.3 mb - 0.00 in0.0 mm 0.08 in2.0 mm
11:30 PM 44.2°F6.8°C 38.7°F3.7°C 81% 1.2 mph WSW1.9 kmh WSW -- 29.47 in998.0 mb - 0.00 in0.0 mm 0.08 in2.0 mm
11:40 PM 44.1°F6.7°C 38.6°F3.7°C 81% Calm Calm -- 29.47 in998.0 mb - 0.00 in0.0 mm 0.08 in2.0 mm
11:50 PM 43.9°F6.6°C 39.1°F3.9°C 83% 1.2 mph W1.9 kmh W 5.8 mph9.3 kmh 29.47 in998.0 mb - 0.01 in0.3 mm 0.09 in2.3 mm